Terminal Aerodrome Forecast
Issued by NWS

Home | Current Version | Previous Version | Graphics & Text | Print | Product List | Glossary On
Versions: 1 2 3 4 5 6 7 8 9 10 11 12 13 14 15
000
FTUS43 KGRB 141136
TAFRHI
TAF
KRHI 141136Z 1412/1512 VRB03KT P6SM SCT200
     FM141400 09006KT P6SM SCT120 BKN200
     FM142000 08008KT P6SM VCSH SCT035 BKN100
     FM142200 09008KT 6SM -RA BKN020 OVC035
     FM150000 06008KT 4SM -RA BR SCT006 OVC012
      TEMPO 1502/1506 2SM RA BR BKN006
     FM150600 02010G18KT 3SM RA BR OVC004=

USA.gov is the U.S. government's official web portal to all federal, state and local government web resources and services.